Time;durP1;ratioP1;P1;durP2;ratioP2;P2;SDS_P1;SDS_P2;PMS_P1;PMS_P2;Temp;Humidity;BMP_temperature;BMP_pressure;BME280_temperature;BME280_humidity;BME280_pressure;Samples;Min_cycle;Max_cycle;Signal;HPM_P1;HPM_P2
2021/09/12 00:01:53;;;;;;;;;;;18.80;47.10;;;;;;4998751;28;89947;-54
2021/09/12 00:04:18;;;;;;;;;;;18.80;47.20;;;;;;4997861;28;88077;-56
2021/09/12 00:06:44;;;;;;;;;;;18.80;47.10;;;;;;4999160;28;88678;-54
2021/09/12 00:09:09;;;;;;;;;;;18.70;47.20;;;;;;5001577;28;88567;-55
2021/09/12 00:11:35;;;;;;;;;;;18.70;47.20;;;;;;5000638;28;87141;-56
2021/09/12 00:14:00;;;;;;;;;;;18.70;47.20;;;;;;4998857;28;88979;-55
2021/09/12 00:16:26;;;;;;;;;;;18.70;47.20;;;;;;5000448;28;87117;-55
2021/09/12 00:18:51;;;;;;;;;;;18.70;47.20;;;;;;4999293;28;88751;-55
2021/09/12 00:21:17;;;;;;;;;;;18.60;47.20;;;;;;4999178;28;87643;-56
2021/09/12 00:23:43;;;;;;;;;;;18.60;47.20;;;;;;4997974;28;87195;-56
2021/09/12 00:26:08;;;;;;;;;;;18.60;47.30;;;;;;4997374;28;88892;-56
2021/09/12 00:28:34;;;;;;;;;;;18.60;47.20;;;;;;4995999;28;88860;-56
2021/09/12 00:30:59;;;;;;;;;;;18.60;47.20;;;;;;5001187;28;87133;-56
2021/09/12 00:33:27;;;;;;;;;;;18.60;47.20;;;;;;4998580;28;87767;-54
2021/09/12 00:35:52;;;;;;;;;;;18.50;47.10;;;;;;4997001;28;87192;-54
2021/09/12 00:38:18;;;;;;;;;;;18.50;47.20;;;;;;5000376;28;87176;-56
2021/09/12 00:40:43;;;;;;;;;;;18.50;47.30;;;;;;5000269;28;87160;-56
2021/09/12 00:43:09;;;;;;;;;;;18.50;47.20;;;;;;5000826;28;87215;-56
2021/09/12 00:45:34;;;;;;;;;;;18.50;47.30;;;;;;5002634;28;88149;-56
2021/09/12 00:48:00;;;;;;;;;;;18.50;47.30;;;;;;4999688;28;88982;-54
2021/09/12 00:50:25;;;;;;;;;;;18.50;47.30;;;;;;4998907;28;87186;-56
2021/09/12 00:52:51;;;;;;;;;;;18.40;47.30;;;;;;5001165;28;89064;-55
2021/09/12 00:55:17;;;;;;;;;;;18.40;47.30;;;;;;5001906;28;87163;-55
2021/09/12 00:57:44;;;;;;;;;;;18.40;47.40;;;;;;5000370;28;89000;-56
2021/09/12 01:00:10;;;;;;;;;;;18.40;47.50;;;;;;4998278;28;89570;-56
2021/09/12 01:02:36;;;;;;;;;;;18.40;47.30;;;;;;4999394;28;87180;-56
2021/09/12 01:05:02;;;;;;;;;;;18.40;47.40;;;;;;4998477;28;87588;-56
2021/09/12 01:07:27;;;;;;;;;;;18.40;47.40;;;;;;4999928;28;88067;-56
2021/09/12 01:09:53;;;;;;;;;;;18.40;47.50;;;;;;5002553;28;86401;-55
2021/09/12 01:12:18;;;;;;;;;;;18.30;47.50;;;;;;5001531;28;87994;-55
2021/09/12 01:14:44;;;;;;;;;;;18.40;47.50;;;;;;5002707;28;89870;-56
2021/09/12 01:17:09;;;;;;;;;;;18.30;47.60;;;;;;4999807;28;88116;-56
2021/09/12 01:19:35;;;;;;;;;;;18.30;47.50;;;;;;5000287;28;87751;-56
2021/09/12 01:22:04;;;;;;;;;;;18.30;47.60;;;;;;4999028;28;87546;-56
2021/09/12 01:24:31;;;;;;;;;;;18.30;47.50;;;;;;4999586;28;88376;-56
2021/09/12 01:26:56;;;;;;;;;;;18.30;47.60;;;;;;4999039;28;89731;-56
2021/09/12 01:29:22;;;;;;;;;;;18.20;47.60;;;;;;5000033;28;87173;-55
2021/09/12 01:31:48;;;;;;;;;;;18.20;47.60;;;;;;4999690;28;87730;-55
2021/09/12 01:34:13;;;;;;;;;;;18.20;47.70;;;;;;5001482;28;87025;-56
2021/09/12 01:36:39;;;;;;;;;;;18.20;47.60;;;;;;5002255;28;87131;-56
2021/09/12 01:39:05;;;;;;;;;;;18.20;47.70;;;;;;5000503;28;87462;-55
2021/09/12 01:41:30;;;;;;;;;;;18.20;47.70;;;;;;4999070;28;88600;-55
2021/09/12 01:43:57;;;;;;;;;;;18.20;47.70;;;;;;4999729;28;89657;-56
2021/09/12 01:46:23;;;;;;;;;;;18.10;47.60;;;;;;4998487;28;87563;-56
2021/09/12 01:48:49;;;;;;;;;;;18.10;47.60;;;;;;4996768;28;87126;-55
2021/09/12 01:51:14;;;;;;;;;;;18.10;47.70;;;;;;4997903;28;88099;-55
2021/09/12 01:53:40;;;;;;;;;;;18.10;47.70;;;;;;4997257;28;87814;-56
2021/09/12 01:56:05;;;;;;;;;;;18.10;47.80;;;;;;5001534;28;87131;-55
2021/09/12 01:58:31;;;;;;;;;;;18.10;47.80;;;;;;4999723;28;89307;-54
2021/09/12 02:00:57;;;;;;;;;;;18.00;47.80;;;;;;5000920;28;87234;-55
2021/09/12 02:03:23;;;;;;;;;;;18.00;47.80;;;;;;5001617;28;87147;-56
2021/09/12 02:05:48;;;;;;;;;;;18.00;47.80;;;;;;5000971;28;88509;-56
2021/09/12 02:08:14;;;;;;;;;;;18.00;47.80;;;;;;5000572;28;87925;-56
2021/09/12 02:10:39;;;;;;;;;;;18.00;47.80;;;;;;4997395;28;88009;-56
2021/09/12 02:13:05;;;;;;;;;;;18.00;47.80;;;;;;4996698;28;87635;-55
2021/09/12 02:15:30;;;;;;;;;;;18.00;47.80;;;;;;4997794;28;87173;-55
2021/09/12 02:17:56;;;;;;;;;;;18.00;47.80;;;;;;5000713;28;87359;-55
2021/09/12 02:20:21;;;;;;;;;;;17.90;47.70;;;;;;4998506;28;87144;-55
2021/09/12 02:22:47;;;;;;;;;;;17.90;47.90;;;;;;4999129;28;87448;-56
2021/09/12 02:25:12;;;;;;;;;;;17.90;47.90;;;;;;4998331;28;88200;-55
2021/09/12 02:27:38;;;;;;;;;;;17.80;47.80;;;;;;4999110;28;87176;-55
2021/09/12 02:30:05;;;;;;;;;;;17.80;47.80;;;;;;4999067;28;88087;-55
2021/09/12 02:32:30;;;;;;;;;;;17.80;47.80;;;;;;4998202;28;89520;-55
2021/09/12 02:34:56;;;;;;;;;;;17.80;47.90;;;;;;5000228;28;87117;-56
2021/09/12 02:37:22;;;;;;;;;;;17.80;47.90;;;;;;5001298;28;87245;-56
2021/09/12 02:39:47;;;;;;;;;;;17.70;48.00;;;;;;5001232;28;89729;-56
2021/09/12 02:42:13;;;;;;;;;;;17.70;47.90;;;;;;4996791;28;88446;-56
2021/09/12 02:44:38;;;;;;;;;;;17.70;48.00;;;;;;4997698;28;87865;-54
2021/09/12 02:47:04;;;;;;;;;;;17.70;47.90;;;;;;4999664;28;86508;-55
2021/09/12 02:49:29;;;;;;;;;;;17.70;48.10;;;;;;5000367;28;87136;-55
2021/09/12 02:51:55;;;;;;;;;;;17.70;48.10;;;;;;5000212;28;88580;-55
2021/09/12 02:54:20;;;;;;;;;;;17.60;48.10;;;;;;4996759;28;88605;-56
2021/09/12 02:56:46;;;;;;;;;;;17.60;48.10;;;;;;4996525;28;88334;-55
2021/09/12 02:59:12;;;;;;;;;;;17.60;48.20;;;;;;4995790;28;87812;-55
2021/09/12 03:01:37;;;;;;;;;;;17.60;48.10;;;;;;4999638;28;87135;-56
2021/09/12 03:04:03;;;;;;;;;;;17.50;48.10;;;;;;4997595;28;87975;-55
2021/09/12 03:06:28;;;;;;;;;;;17.50;48.10;;;;;;4999116;28;87163;-56
2021/09/12 03:08:54;;;;;;;;;;;17.60;48.30;;;;;;5000160;28;88653;-56
2021/09/12 03:11:19;;;;;;;;;;;17.60;48.20;;;;;;4999870;28;86457;-56
2021/09/12 03:13:45;;;;;;;;;;;17.50;48.20;;;;;;4996540;28;88138;-56
2021/09/12 03:16:10;;;;;;;;;;;17.50;48.10;;;;;;4997098;28;87597;-56
2021/09/12 03:18:36;;;;;;;;;;;17.50;48.20;;;;;;4996209;28;88422;-56
2021/09/12 03:21:02;;;;;;;;;;;17.50;48.20;;;;;;4998137;28;87124;-55
2021/09/12 03:23:27;;;;;;;;;;;17.50;48.20;;;;;;5001584;28;87187;-56
2021/09/12 03:25:53;;;;;;;;;;;17.40;48.20;;;;;;5000032;28;87182;-56
2021/09/12 03:28:18;;;;;;;;;;;17.40;48.30;;;;;;5000621;28;87478;-56
2021/09/12 03:30:44;;;;;;;;;;;17.40;48.30;;;;;;5000440;28;87898;-56
2021/09/12 03:33:14;;;;;;;;;;;17.40;48.40;;;;;;5000326;28;87119;-56
2021/09/12 03:35:39;;;;;;;;;;;17.40;48.20;;;;;;4996461;28;88906;-55
2021/09/12 03:38:05;;;;;;;;;;;17.40;48.30;;;;;;4996505;28;87747;-55
2021/09/12 03:40:30;;;;;;;;;;;17.40;48.40;;;;;;4996713;28;87146;-56
2021/09/12 03:42:56;;;;;;;;;;;17.30;48.40;;;;;;4996484;28;88125;-54
2021/09/12 03:45:22;;;;;;;;;;;17.30;48.40;;;;;;5000173;28;87809;-55
2021/09/12 03:47:47;;;;;;;;;;;17.30;48.40;;;;;;4997788;28;88672;-55
2021/09/12 03:50:13;;;;;;;;;;;17.30;48.40;;;;;;4998121;28;89672;-54
2021/09/12 03:52:40;;;;;;;;;;;17.30;48.40;;;;;;4999767;28;87193;-55
2021/09/12 03:55:06;;;;;;;;;;;17.30;48.40;;;;;;4999072;28;89053;-55
2021/09/12 03:57:31;;;;;;;;;;;17.30;48.40;;;;;;4998352;28;87210;-55
2021/09/12 03:59:57;;;;;;;;;;;17.20;48.50;;;;;;4999809;28;86402;-55
2021/09/12 04:02:22;;;;;;;;;;;17.20;48.50;;;;;;5000396;28;87281;-56
2021/09/12 04:04:48;;;;;;;;;;;17.20;48.50;;;;;;4999556;28;89636;-55
2021/09/12 04:07:13;;;;;;;;;;;17.20;48.50;;;;;;4995191;28;89331;-56
2021/09/12 04:09:39;;;;;;;;;;;17.10;48.60;;;;;;4996855;28;88195;-55
2021/09/12 04:12:05;;;;;;;;;;;17.10;48.60;;;;;;5001300;28;87139;-56
2021/09/12 04:14:30;;;;;;;;;;;17.10;48.50;;;;;;5002326;28;87320;-55
2021/09/12 04:16:56;;;;;;;;;;;17.10;48.50;;;;;;5002569;28;88748;-55
2021/09/12 04:19:21;;;;;;;;;;;17.10;48.60;;;;;;5002419;28;88610;-56
2021/09/12 04:21:47;;;;;;;;;;;17.10;48.60;;;;;;4999136;28;88423;-56
2021/09/12 04:24:12;;;;;;;;;;;17.10;48.60;;;;;;4999802;28;87317;-56
2021/09/12 04:26:38;;;;;;;;;;;17.10;48.60;;;;;;5003832;28;87183;-55
2021/09/12 04:29:03;;;;;;;;;;;17.00;48.60;;;;;;5001613;28;88851;-56
2021/09/12 04:31:29;;;;;;;;;;;17.10;48.60;;;;;;5002399;28;88151;-55
2021/09/12 04:33:55;;;;;;;;;;;17.10;48.60;;;;;;5001016;28;88040;-56
2021/09/12 04:36:20;;;;;;;;;;;17.10;48.60;;;;;;4998948;28;88149;-56
2021/09/12 04:38:46;;;;;;;;;;;17.00;48.60;;;;;;4999354;28;87114;-56
2021/09/12 04:41:12;;;;;;;;;;;17.00;48.70;;;;;;5000165;28;87179;-56
2021/09/12 04:43:37;;;;;;;;;;;17.00;48.70;;;;;;4999847;28;87805;-56
2021/09/12 04:46:03;;;;;;;;;;;17.00;48.70;;;;;;5001412;28;87178;-56
2021/09/12 04:48:28;;;;;;;;;;;17.00;48.70;;;;;;5005610;28;87280;-55
2021/09/12 04:50:55;;;;;;;;;;;17.00;48.60;;;;;;5001890;28;87285;-55
2021/09/12 04:53:21;;;;;;;;;;;17.00;48.70;;;;;;5002801;28;88650;-56
2021/09/12 04:55:46;;;;;;;;;;;17.00;48.70;;;;;;5001614;28;89127;-56
2021/09/12 04:58:12;;;;;;;;;;;17.00;48.70;;;;;;5000515;28;88550;-55
2021/09/12 05:00:37;;;;;;;;;;;16.90;48.70;;;;;;4998419;28;88688;-56
2021/09/12 05:03:03;;;;;;;;;;;16.90;48.70;;;;;;4999053;28;89241;-55
2021/09/12 05:05:28;;;;;;;;;;;16.90;48.70;;;;;;5000936;28;87143;-56
2021/09/12 05:07:54;;;;;;;;;;;16.90;48.80;;;;;;5001667;28;87228;-56
2021/09/12 05:10:20;;;;;;;;;;;16.90;48.90;;;;;;5003861;28;89480;-55
2021/09/12 05:12:46;;;;;;;;;;;16.80;49.50;;;;;;5002234;28;87619;-55
2021/09/12 05:15:11;;;;;;;;;;;16.80;48.90;;;;;;5001243;28;88924;-56
2021/09/12 05:17:37;;;;;;;;;;;16.80;48.90;;;;;;4998791;28;88756;-56
2021/09/12 05:20:04;;;;;;;;;;;16.80;48.80;;;;;;4997893;28;88106;-55
2021/09/12 05:22:29;;;;;;;;;;;16.80;48.80;;;;;;4997816;28;89453;-55
2021/09/12 05:24:55;;;;;;;;;;;16.80;48.90;;;;;;4999649;28;87197;-55
2021/09/12 05:27:20;;;;;;;;;;;16.80;49.00;;;;;;5000860;28;87557;-56
2021/09/12 05:29:46;;;;;;;;;;;16.80;48.90;;;;;;5001138;28;87736;-55
2021/09/12 05:32:11;;;;;;;;;;;16.80;48.90;;;;;;5004658;28;87187;-54
2021/09/12 05:34:37;;;;;;;;;;;16.80;48.90;;;;;;5000785;28;87901;-55
2021/09/12 05:37:02;;;;;;;;;;;16.80;49.00;;;;;;4998188;28;87798;-56
2021/09/12 05:39:28;;;;;;;;;;;16.80;48.90;;;;;;4998745;28;87156;-56
2021/09/12 05:41:54;;;;;;;;;;;16.80;49.00;;;;;;4999284;28;88707;-55
2021/09/12 05:44:19;;;;;;;;;;;16.80;48.90;;;;;;4999178;28;88103;-56
2021/09/12 05:46:47;;;;;;;;;;;16.80;48.90;;;;;;5000867;28;87331;-54
2021/09/12 05:49:12;;;;;;;;;;;16.80;49.00;;;;;;4998729;28;89575;-56
2021/09/12 05:51:38;;;;;;;;;;;16.80;48.90;;;;;;5000522;28;87149;-56
2021/09/12 05:54:03;;;;;;;;;;;16.80;49.00;;;;;;5004232;28;88213;-55
2021/09/12 05:56:29;;;;;;;;;;;16.80;49.10;;;;;;5001576;28;88222;-56
2021/09/12 05:58:54;;;;;;;;;;;16.80;49.10;;;;;;5002113;28;87221;-55
2021/09/12 06:01:20;;;;;;;;;;;16.70;49.10;;;;;;5001112;28;88864;-56
2021/09/12 06:03:46;;;;;;;;;;;16.70;49.00;;;;;;5000908;28;87280;-56
2021/09/12 06:06:11;;;;;;;;;;;16.70;49.10;;;;;;5000490;28;88719;-55
2021/09/12 06:08:37;;;;;;;;;;;16.80;49.10;;;;;;4999221;28;90401;-54
2021/09/12 06:11:02;;;;;;;;;;;16.80;49.10;;;;;;5001770;28;87171;-55
2021/09/12 06:13:28;;;;;;;;;;;16.70;49.10;;;;;;5002017;28;88450;-54
2021/09/12 06:15:53;;;;;;;;;;;16.70;49.20;;;;;;4997265;28;87130;-56
2021/09/12 06:18:19;;;;;;;;;;;16.70;49.20;;;;;;4998283;28;88764;-55
2021/09/12 06:20:44;;;;;;;;;;;16.70;49.40;;;;;;4999276;28;88335;-56
2021/09/12 06:23:10;;;;;;;;;;;16.70;49.40;;;;;;5000748;28;87223;-54
2021/09/12 06:25:35;;;;;;;;;;;16.70;49.30;;;;;;5001615;28;88004;-56
2021/09/12 06:28:01;;;;;;;;;;;16.70;49.40;;;;;;5000497;28;89273;-56
2021/09/12 06:30:26;;;;;;;;;;;16.70;49.40;;;;;;4998072;28;88731;-56
2021/09/12 06:32:52;;;;;;;;;;;16.70;49.50;;;;;;4996097;28;88912;-56
2021/09/12 06:35:18;;;;;;;;;;;16.70;49.40;;;;;;5000859;28;88184;-55
2021/09/12 06:37:43;;;;;;;;;;;16.70;49.50;;;;;;4999778;28;87226;-56
2021/09/12 06:40:11;;;;;;;;;;;16.70;49.40;;;;;;5000042;28;89836;-56
2021/09/12 06:42:37;;;;;;;;;;;16.70;49.40;;;;;;4997701;28;87200;-55
2021/09/12 06:45:02;;;;;;;;;;;16.60;49.50;;;;;;4998914;28;87200;-56
2021/09/12 06:47:28;;;;;;;;;;;16.70;49.60;;;;;;4999100;28;90164;-56
2021/09/12 06:49:53;;;;;;;;;;;16.60;49.60;;;;;;5001296;28;86417;-56
2021/09/12 06:52:19;;;;;;;;;;;16.60;49.60;;;;;;4999567;28;88803;-56
2021/09/12 06:54:45;;;;;;;;;;;16.60;49.50;;;;;;4996107;28;90020;-56
2021/09/12 06:57:10;;;;;;;;;;;16.70;49.60;;;;;;4999840;28;88191;-56
2021/09/12 06:59:36;;;;;;;;;;;16.70;49.60;;;;;;4998525;28;87641;-53
2021/09/12 07:02:01;;;;;;;;;;;16.70;49.60;;;;;;5000208;28;87151;-56
2021/09/12 07:04:27;;;;;;;;;;;16.70;49.60;;;;;;5000673;28;88960;-56
2021/09/12 07:06:52;;;;;;;;;;;16.70;49.50;;;;;;4997453;28;88909;-56
2021/09/12 07:09:18;;;;;;;;;;;16.70;49.60;;;;;;4996899;28;87189;-56
2021/09/12 07:11:43;;;;;;;;;;;16.60;49.60;;;;;;4997980;28;87205;-55
2021/09/12 07:14:09;;;;;;;;;;;16.60;49.60;;;;;;4997687;28;86993;-56
2021/09/12 07:16:34;;;;;;;;;;;16.60;49.60;;;;;;4996903;28;87136;-56
2021/09/12 07:19:00;;;;;;;;;;;16.60;49.70;;;;;;5000437;28;87205;-55
2021/09/12 07:21:25;;;;;;;;;;;16.60;49.70;;;;;;4997283;28;88217;-56
2021/09/12 07:23:51;;;;;;;;;;;16.60;49.80;;;;;;4998758;28;88885;-55
2021/09/12 07:26:16;;;;;;;;;;;16.60;49.70;;;;;;4999491;28;88958;-55
2021/09/12 07:28:43;;;;;;;;;;;16.60;49.80;;;;;;4999529;28;87159;-56
2021/09/12 07:31:08;;;;;;;;;;;16.60;49.80;;;;;;4997704;28;88545;-56
2021/09/12 07:33:34;;;;;;;;;;;16.60;49.90;;;;;;4996723;28;87703;-56
2021/09/12 07:36:00;;;;;;;;;;;16.60;49.90;;;;;;4998159;28;87109;-54
2021/09/12 07:38:26;;;;;;;;;;;16.60;49.90;;;;;;4999820;28;86870;-55
2021/09/12 07:40:51;;;;;;;;;;;16.60;49.90;;;;;;5002168;28;88042;-56
2021/09/12 07:43:17;;;;;;;;;;;16.60;49.90;;;;;;5000590;28;87185;-55
2021/09/12 07:45:42;;;;;;;;;;;16.60;49.90;;;;;;4997130;28;90524;-55
2021/09/12 07:48:08;;;;;;;;;;;16.60;50.10;;;;;;4999883;28;87168;-56
2021/09/12 07:50:33;;;;;;;;;;;16.60;49.90;;;;;;5001180;28;87187;-54
2021/09/12 07:52:59;;;;;;;;;;;16.60;50.00;;;;;;5002025;28;88350;-56
2021/09/12 07:55:24;;;;;;;;;;;16.60;50.00;;;;;;5003216;28;87155;-56
2021/09/12 07:57:50;;;;;;;;;;;16.60;50.60;;;;;;5002930;28;87255;-55
2021/09/12 08:00:16;;;;;;;;;;;16.60;50.10;;;;;;5002741;28;89754;-56
2021/09/12 08:02:42;;;;;;;;;;;16.60;50.00;;;;;;5006814;28;86441;-56
2021/09/12 08:05:08;;;;;;;;;;;16.70;50.10;;;;;;5002910;28;87127;-55
2021/09/12 08:07:34;;;;;;;;;;;16.60;50.10;;;;;;5003103;28;87115;-55
2021/09/12 08:09:59;;;;;;;;;;;16.60;50.10;;;;;;5002745;28;88829;-54
2021/09/12 08:12:25;;;;;;;;;;;16.60;50.10;;;;;;5001186;28;89869;-56
2021/09/12 08:14:50;;;;;;;;;;;16.60;50.20;;;;;;4999022;28;87128;-55
2021/09/12 08:17:16;;;;;;;;;;;16.60;50.10;;;;;;5000118;28;89019;-56
2021/09/12 08:19:41;;;;;;;;;;;16.60;50.10;;;;;;5000945;28;88518;-56
2021/09/12 08:22:07;;;;;;;;;;;16.60;50.20;;;;;;5005396;28;87178;-55
2021/09/12 08:24:33;;;;;;;;;;;16.60;50.30;;;;;;5003106;28;88120;-56
2021/09/12 08:26:59;;;;;;;;;;;16.60;50.20;;;;;;5002638;28;86464;-55
2021/09/12 08:29:24;;;;;;;;;;;16.70;50.20;;;;;;4999344;28;88656;-54
2021/09/12 08:31:50;;;;;;;;;;;16.70;50.20;;;;;;4998964;28;88251;-56
2021/09/12 08:34:17;;;;;;;;;;;16.70;50.20;;;;;;4999410;28;88129;-56
2021/09/12 08:36:43;;;;;;;;;;;16.70;50.20;;;;;;4999432;28;89766;-53
2021/09/12 08:39:08;;;;;;;;;;;16.70;50.20;;;;;;5003147;28;87782;-55
2021/09/12 08:41:34;;;;;;;;;;;16.70;50.20;;;;;;5000379;28;88629;-56
2021/09/12 08:44:00;;;;;;;;;;;16.70;50.20;;;;;;5001167;28;88140;-55
2021/09/12 08:46:25;;;;;;;;;;;16.70;50.20;;;;;;4999621;28;87164;-54
2021/09/12 08:48:51;;;;;;;;;;;16.70;50.30;;;;;;5000808;28;87383;-56
2021/09/12 08:51:17;;;;;;;;;;;16.70;50.20;;;;;;5002030;28;87077;-56
2021/09/12 08:53:42;;;;;;;;;;;16.70;50.30;;;;;;5003000;28;87185;-56
2021/09/12 08:56:08;;;;;;;;;;;16.70;50.20;;;;;;4999763;28;88599;-56
2021/09/12 08:58:33;;;;;;;;;;;16.70;50.30;;;;;;4997188;28;90564;-55
2021/09/12 09:00:59;;;;;;;;;;;16.70;50.20;;;;;;4999288;28;87162;-54
2021/09/12 09:03:35;;;;;;;;;;;16.80;50.30;;;;;;5000084;28;87159;-55
2021/09/12 09:06:10;;;;;;;;;;;16.70;50.30;;;;;;5003643;28;87941;-56
2021/09/12 09:08:47;;;;;;;;;;;16.80;50.40;;;;;;5002745;28;88918;-55
2021/09/12 09:11:13;;;;;;;;;;;16.80;50.40;;;;;;5002185;28;88483;-56
2021/09/12 09:13:39;;;;;;;;;;;16.80;50.50;;;;;;5000243;28;87916;-55
2021/09/12 09:16:05;;;;;;;;;;;16.80;50.40;;;;;;4999471;28;89008;-55
2021/09/12 09:18:34;;;;;;;;;;;16.80;50.50;;;;;;4999840;28;90196;-56
2021/09/12 09:21:00;;;;;;;;;;;16.80;50.50;;;;;;5001242;28;87126;-55
2021/09/12 09:23:25;;;;;;;;;;;16.80;50.40;;;;;;5001174;28;88113;-56
2021/09/12 09:25:52;;;;;;;;;;;16.80;50.40;;;;;;5001111;28;89955;-55
2021/09/12 09:28:19;;;;;;;;;;;16.80;50.40;;;;;;5004852;28;87221;-55
2021/09/12 09:30:49;;;;;;;;;;;16.80;50.60;;;;;;5001568;28;89621;-55
2021/09/12 09:33:17;;;;;;;;;;;16.80;50.50;;;;;;4998019;28;88833;-54
2021/09/12 09:35:53;;;;;;;;;;;16.80;50.50;;;;;;5001359;28;87800;-55
2021/09/12 09:38:20;;;;;;;;;;;16.90;50.30;;;;;;5001307;28;89564;-55
2021/09/12 09:40:59;;;;;;;;;;;16.90;50.30;;;;;;5001699;28;86486;-56
2021/09/12 09:43:35;;;;;;;;;;;16.90;50.20;;;;;;4997862;28;88326;-56
2021/09/12 09:46:00;;;;;;;;;;;17.00;50.20;;;;;;4999207;28;87356;-56
2021/09/12 09:48:31;;;;;;;;;;;17.00;50.20;;;;;;4999762;28;88114;-55
2021/09/12 09:50:57;;;;;;;;;;;17.00;50.20;;;;;;5002172;28;88977;-56
2021/09/12 09:53:23;;;;;;;;;;;17.00;50.10;;;;;;4999172;28;87172;-56
2021/09/12 09:55:48;;;;;;;;;;;17.00;50.10;;;;;;5000189;28;87142;-56
2021/09/12 09:58:15;;;;;;;;;;;17.00;50.00;;;;;;5000904;28;87372;-55
2021/09/12 10:00:40;;;;;;;;;;;17.10;50.10;;;;;;5001630;28;87152;-57
2021/09/12 10:03:06;;;;;;;;;;;17.10;50.10;;;;;;5000186;28;88761;-56
2021/09/12 10:05:32;;;;;;;;;;;17.10;50.00;;;;;;4999390;28;88245;-56
2021/09/12 10:07:58;;;;;;;;;;;17.10;49.90;;;;;;5000978;28;87144;-55
2021/09/12 10:10:23;;;;;;;;;;;17.10;49.90;;;;;;5002875;28;88902;-56
2021/09/12 10:12:49;;;;;;;;;;;17.10;49.80;;;;;;4996329;28;89882;-54
2021/09/12 10:15:18;;;;;;;;;;;17.20;49.80;;;;;;4998025;28;90319;-54
2021/09/12 10:17:44;;;;;;;;;;;17.20;49.60;;;;;;5001320;28;88082;-55
2021/09/12 10:20:11;;;;;;;;;;;17.20;49.70;;;;;;5001514;28;87122;-54
2021/09/12 10:22:56;;;;;;;;;;;17.20;49.40;;;;;;5000301;28;88723;-55
2021/09/12 10:25:23;;;;;;;;;;;17.30;49.40;;;;;;4998772;28;89270;-55
2021/09/12 10:27:57;;;;;;;;;;;17.30;49.50;;;;;;4999072;28;88638;-55
2021/09/12 10:30:27;;;;;;;;;;;17.30;49.60;;;;;;4999708;28;89378;-53
2021/09/12 10:33:13;;;;;;;;;;;17.30;49.50;;;;;;5003003;28;89520;-54
2021/09/12 10:35:48;;;;;;;;;;;17.30;49.60;;;;;;5000024;28;88585;-56
2021/09/12 10:38:25;;;;;;;;;;;17.40;49.50;;;;;;4998851;28;89204;-55
2021/09/12 10:40:50;;;;;;;;;;;17.40;49.40;;;;;;5001345;28;87172;-56
2021/09/12 10:43:25;;;;;;;;;;;17.40;48.90;;;;;;5000422;28;87762;-55
2021/09/12 10:46:06;;;;;;;;;;;17.40;49.10;;;;;;5000310;28;89901;-55
2021/09/12 10:48:36;;;;;;;;;;;17.40;48.90;;;;;;5000562;28;87263;-48
2021/09/12 10:51:05;;;;;;;;;;;17.50;45.80;;;;;;4996524;28;89073;-55
2021/09/12 10:53:43;;;;;;;;;;;17.80;44.70;;;;;;4998897;28;89647;-56
2021/09/12 10:56:09;;;;;;;;;;;17.80;45.60;;;;;;5000920;28;86414;-47
2021/09/12 10:58:35;;;;;;;;;;;17.70;45.00;;;;;;4996437;28;87860;-56
2021/09/12 11:01:01;;;;;;;;;;;17.90;44.20;;;;;;4997828;28;87158;-54
2021/09/12 11:03:27;;;;;;;;;;;17.90;44.10;;;;;;4997006;28;89187;-51
2021/09/12 11:05:53;;;;;;;;;;;17.80;45.40;;;;;;4998195;28;88052;-52
2021/09/12 11:08:18;;;;;;;;;;;17.80;45.50;;;;;;4999350;28;87214;-52
2021/09/12 11:10:51;;;;;;;;;;;17.80;45.70;;;;;;4999921;28;88495;-54
2021/09/12 11:13:23;;;;;;;;;;;17.90;45.60;;;;;;4996933;28;90079;-55
2021/09/12 11:15:48;;;;;;;;;;;17.90;46.30;;;;;;5000542;28;87156;-55
2021/09/12 11:18:14;;;;;;;;;;;17.90;46.40;;;;;;5002666;28;87583;-53
2021/09/12 11:20:41;;;;;;;;;;;18.00;46.40;;;;;;4999248;28;86452;-53
2021/09/12 11:23:06;;;;;;;;;;;18.00;46.90;;;;;;4997749;28;87175;-53
2021/09/12 11:25:32;;;;;;;;;;;18.00;46.60;;;;;;4998106;28;88816;-53
2021/09/12 11:28:01;;;;;;;;;;;18.10;46.90;;;;;;4996872;28;88071;-54
2021/09/12 11:30:27;;;;;;;;;;;18.00;46.90;;;;;;4999196;28;90570;-51
2021/09/12 11:32:52;;;;;;;;;;;18.00;46.90;;;;;;4997636;28;89630;-51
2021/09/12 11:35:18;;;;;;;;;;;18.10;47.60;;;;;;4998861;28;87130;-52
2021/09/12 11:37:43;;;;;;;;;;;18.10;47.10;;;;;;5000072;28;88007;-53
2021/09/12 11:40:09;;;;;;;;;;;18.10;46.90;;;;;;5001930;28;88530;-52
2021/09/12 11:42:34;;;;;;;;;;;18.10;46.50;;;;;;4997131;28;88579;-50
2021/09/12 11:45:00;;;;;;;;;;;18.20;47.00;;;;;;4996594;28;86895;-52
2021/09/12 11:47:26;;;;;;;;;;;18.20;46.80;;;;;;4997778;28;87169;-54
2021/09/12 11:50:00;;;;;;;;;;;18.10;46.90;;;;;;4997869;28;89090;-51
2021/09/12 11:52:29;;;;;;;;;;;18.20;47.00;;;;;;4996780;28;90434;-51
2021/09/12 11:54:55;;;;;;;;;;;18.20;47.10;;;;;;4997818;28;87190;-54
2021/09/12 11:57:20;;;;;;;;;;;18.30;47.00;;;;;;4998908;28;87201;-50
2021/09/12 11:59:48;;;;;;;;;;;18.20;47.00;;;;;;4999927;28;87770;-55
2021/09/12 12:02:20;;;;;;;;;;;18.30;47.10;;;;;;5001626;28;87177;-51
2021/09/12 12:04:46;;;;;;;;;;;18.30;47.20;;;;;;4997051;28;89684;-54
2021/09/12 12:07:12;;;;;;;;;;;18.40;47.10;;;;;;4998185;28;87534;-52
2021/09/12 12:09:39;;;;;;;;;;;18.40;47.20;;;;;;4999389;28;88645;-55
2021/09/12 12:12:06;;;;;;;;;;;18.40;47.10;;;;;;4997045;28;87436;-53
2021/09/12 12:14:32;;;;;;;;;;;18.40;47.10;;;;;;4995468;28;87161;-54
2021/09/12 12:17:01;;;;;;;;;;;18.40;47.30;;;;;;4995091;28;88929;-52
2021/09/12 12:19:31;;;;;;;;;;;18.50;47.10;;;;;;4997711;28;88121;-54
2021/09/12 12:22:02;;;;;;;;;;;18.50;47.40;;;;;;5003114;28;87175;-54
2021/09/12 12:24:33;;;;;;;;;;;18.50;47.10;;;;;;4997513;28;88610;-52
2021/09/12 12:27:03;;;;;;;;;;;18.50;47.40;;;;;;4995261;28;88223;-52
2021/09/12 12:29:33;;;;;;;;;;;18.60;47.00;;;;;;4996976;28;87641;-50
2021/09/12 12:31:59;;;;;;;;;;;18.60;48.10;;;;;;5000465;28;87801;-51
2021/09/12 12:34:38;;;;;;;;;;;18.60;47.20;;;;;;5003472;28;86508;-56
2021/09/12 12:37:04;;;;;;;;;;;18.70;47.20;;;;;;4999988;28;87999;-55
2021/09/12 12:39:29;;;;;;;;;;;18.70;47.30;;;;;;5000550;28;87681;-55
2021/09/12 12:41:55;;;;;;;;;;;18.70;47.30;;;;;;5001372;28;88210;-55
2021/09/12 12:44:21;;;;;;;;;;;18.70;47.40;;;;;;5005386;28;89417;-54
2021/09/12 12:46:47;;;;;;;;;;;18.70;47.50;;;;;;5003108;28;87137;-53
2021/09/12 12:49:21;;;;;;;;;;;18.80;47.40;;;;;;5000983;28;88839;-54
2021/09/12 12:51:59;;;;;;;;;;;18.80;47.50;;;;;;5000317;28;88492;-55
2021/09/12 12:54:30;;;;;;;;;;;18.80;47.70;;;;;;5000059;28;87977;-55
2021/09/12 12:56:55;;;;;;;;;;;18.80;47.60;;;;;;5000862;28;88428;-56
2021/09/12 12:59:21;;;;;;;;;;;18.90;47.40;;;;;;4998539;28;88815;-55
2021/09/12 13:01:46;;;;;;;;;;;18.90;47.60;;;;;;4999053;28;87180;-56
2021/09/12 13:04:12;;;;;;;;;;;18.90;47.50;;;;;;4998573;28;87534;-54
2021/09/12 13:06:37;;;;;;;;;;;18.90;47.70;;;;;;5001340;28;88596;-60
2021/09/12 13:09:03;;;;;;;;;;;18.90;46.10;;;;;;5018533;28;87910;-48
2021/09/12 13:11:30;;;;;;;;;;;19.00;44.70;;;;;;5021368;28;88342;-52
2021/09/12 13:13:55;;;;;;;;;;;19.10;53.10;;;;;;5021183;28;87177;-50
2021/09/12 13:16:21;;;;;;;;;;;19.30;46.00;;;;;;5022401;28;87148;-51
2021/09/12 13:18:46;;;;;;;;;;;19.20;46.60;;;;;;5022208;28;89968;-54
2021/09/12 13:21:12;;;;;;;;;;;19.20;47.20;;;;;;5020680;28;88619;-48
2021/09/12 13:23:37;;;;;;;;;;;19.20;47.20;;;;;;5018363;28;87850;-50
2021/09/12 13:26:03;;;;;;;;;;;19.30;45.40;;;;;;5017390;28;89076;-49
2021/09/12 13:28:28;;;;;;;;;;;19.20;46.00;;;;;;5021075;28;88798;-50
2021/09/12 13:30:54;;;;;;;;;;;19.20;46.30;;;;;;5017229;28;89187;-49
2021/09/12 13:33:19;;;;;;;;;;;19.30;45.80;;;;;;5018539;28;87160;-46
2021/09/12 13:35:46;;;;;;;;;;;19.30;45.10;;;;;;5019059;28;87242;-51
2021/09/12 13:38:12;;;;;;;;;;;19.40;45.60;;;;;;5017833;28;89393;-59
2021/09/12 13:40:37;;;;;;;;;;;19.50;45.40;;;;;;5019531;28;87197;-50
2021/09/12 13:43:03;;;;;;;;;;;19.50;44.60;;;;;;5020382;28;88834;-50
2021/09/12 13:45:28;;;;;;;;;;;19.60;44.50;;;;;;5021166;28;88283;-59
2021/09/12 13:47:54;;;;;;;;;;;19.50;45.50;;;;;;5022037;28;86455;-55
2021/09/12 13:50:20;;;;;;;;;;;19.60;45.20;;;;;;5023975;28;88029;-54
2021/09/12 13:52:45;;;;;;;;;;;19.70;44.90;;;;;;5018912;28;88806;-56
2021/09/12 13:55:11;;;;;;;;;;;19.70;45.60;;;;;;5017220;28;88151;-56
2021/09/12 13:57:36;;;;;;;;;;;19.70;45.60;;;;;;5018719;28;88298;-56
2021/09/12 14:00:06;;;;;;;;;;;19.70;45.80;;;;;;5020372;28;87228;-57
2021/09/12 14:02:31;;;;;;;;;;;19.70;46.00;;;;;;5017287;28;88690;-55
2021/09/12 14:04:57;;;;;;;;;;;19.70;46.30;;;;;;5017165;28;87679;-58
2021/09/12 14:07:28;;;;;;;;;;;19.70;45.20;;;;;;5017928;28;87172;-58
2021/09/12 14:09:54;;;;;;;;;;;19.70;45.40;;;;;;5018045;28;88600;-58
2021/09/12 14:12:19;;;;;;;;;;;19.80;45.90;;;;;;5021837;28;87347;-58